createdAt,value
2023-05-04T00:00:10.518Z,5.47
2023-05-04T00:02:37.374Z,4.90
2023-05-04T00:05:06.143Z,5.32
2023-05-04T00:07:33.197Z,5.75
2023-05-04T00:10:00.262Z,5.13
2023-05-04T00:12:27.475Z,5.15
2023-05-04T00:14:54.345Z,5.00
2023-05-04T00:17:21.179Z,5.57
2023-05-04T00:19:47.899Z,5.43
2023-05-04T00:22:14.657Z,5.20
2023-05-04T00:24:43.185Z,5.22
2023-05-04T00:27:10.647Z,5.03
2023-05-04T00:29:37.405Z,5.43
2023-05-04T00:32:04.383Z,5.30
2023-05-04T00:34:32.058Z,6.07
2023-05-04T00:36:58.757Z,5.65
2023-05-04T00:39:25.466Z,6.20
2023-05-04T00:41:52.184Z,6.20
2023-05-04T00:44:20.350Z,6.00
2023-05-04T00:46:47.323Z,6.40
2023-05-04T00:49:14.173Z,6.65
2023-05-04T00:51:41.207Z,6.03
2023-05-04T00:54:07.937Z,6.32
2023-05-04T00:56:41.164Z,6.05
2023-05-04T00:59:07.967Z,6.82
2023-05-04T01:01:34.693Z,5.85
2023-05-04T01:04:02.091Z,6.45
2023-05-04T01:07:02.033Z,6.20
2023-05-04T01:09:32.209Z,7.20
2023-05-04T01:12:14.109Z,6.43
2023-05-04T01:14:41.641Z,7.20
2023-05-04T01:17:08.885Z,6.60
2023-05-04T01:19:36.215Z,6.63
2023-05-04T01:22:02.991Z,7.18
2023-05-04T01:24:30.845Z,7.32
2023-05-04T01:27:24.955Z,6.47
2023-05-04T01:30:03.363Z,6.82
2023-05-04T01:32:31.779Z,7.45
2023-05-04T01:34:59.491Z,6.82
2023-05-04T01:37:26.520Z,7.13
2023-05-04T01:39:53.201Z,7.15
2023-05-04T01:42:20.034Z,6.90
2023-05-04T01:44:46.976Z,7.50
2023-05-04T01:47:13.767Z,8.02
2023-05-04T01:49:40.639Z,7.28
2023-05-04T01:52:07.365Z,7.82
2023-05-04T01:54:34.167Z,7.07
2023-05-04T01:57:01.959Z,7.40
2023-05-04T01:59:28.832Z,8.52
2023-05-04T02:01:55.839Z,8.52
2023-05-04T02:04:22.624Z,8.25
2023-05-04T02:06:49.306Z,8.02
2023-05-04T02:09:16.648Z,7.97
2023-05-04T02:11:43.357Z,7.38
2023-05-04T02:14:10.127Z,7.43
2023-05-04T02:16:36.977Z,6.82
2023-05-04T02:19:03.733Z,7.03
2023-05-04T02:21:30.584Z,8.20
2023-05-04T02:23:57.420Z,7.53
2023-05-04T02:26:24.271Z,7.97
2023-05-04T02:28:51.056Z,8.55
2023-05-04T02:31:18.076Z,8.88
2023-05-04T02:33:44.736Z,8.38
2023-05-04T02:36:11.468Z,8.52
2023-05-04T02:38:38.425Z,8.63
2023-05-04T02:41:05.229Z,8.13
2023-05-04T02:43:31.922Z,7.70
2023-05-04T02:45:58.689Z,8.60
2023-05-04T02:48:25.539Z,8.25
2023-05-04T02:50:52.388Z,7.75
2023-05-04T02:53:19.071Z,8.55
2023-05-04T02:55:45.805Z,8.10
2023-05-04T02:58:12.513Z,8.10
2023-05-04T03:00:39.250Z,7.43
2023-05-04T03:03:06.350Z,8.00
2023-05-04T03:05:33.106Z,8.18
2023-05-04T03:08:00.410Z,8.18
2023-05-04T03:10:27.178Z,9.10
2023-05-04T03:12:53.963Z,8.77
2023-05-04T03:15:21.008Z,8.48
2023-05-04T03:17:47.887Z,8.27
2023-05-04T03:20:14.905Z,8.57
2023-05-04T03:22:41.702Z,8.65
2023-05-04T03:25:08.811Z,8.15
2023-05-04T03:27:35.616Z,8.68
2023-05-04T03:30:02.922Z,9.00
2023-05-04T03:32:29.915Z,8.35
2023-05-04T03:34:56.661Z,8.57
2023-05-04T03:37:23.931Z,9.02
2023-05-04T03:39:50.677Z,9.15
2023-05-04T03:42:17.369Z,8.88
2023-05-04T03:44:44.153Z,8.50
2023-05-04T03:47:10.864Z,9.25
2023-05-04T03:49:37.529Z,8.57
2023-05-04T03:52:04.331Z,8.63
2023-05-04T03:54:31.283Z,8.82
2023-05-04T03:56:58.165Z,8.70
2023-05-04T03:59:24.943Z,8.15
2023-05-04T04:01:51.601Z,9.75
2023-05-04T04:04:18.354Z,8.80
2023-05-04T04:06:45.091Z,9.23
2023-05-04T04:09:11.774Z,8.70
2023-05-04T04:11:38.452Z,9.25
2023-05-04T04:14:05.253Z,8.40
2023-05-04T04:16:32.102Z,8.70
2023-05-04T04:18:59.080Z,8.77
2023-05-04T04:21:26.643Z,8.77
2023-05-04T04:23:53.922Z,8.88
2023-05-04T04:26:21.607Z,9.13
2023-05-04T04:28:51.452Z,8.77
2023-05-04T04:31:19.106Z,9.35
2023-05-04T04:33:47.371Z,8.80
2023-05-04T04:36:16.747Z,9.93
2023-05-04T04:38:43.633Z,8.82
2023-05-04T04:41:10.931Z,9.00
2023-05-04T04:43:37.770Z,8.80
2023-05-04T04:46:04.666Z,9.88
2023-05-04T04:48:31.438Z,9.35
2023-05-04T04:50:59.011Z,9.40
2023-05-04T04:53:25.792Z,9.40
2023-05-04T04:55:53.112Z,10.00
2023-05-04T04:58:19.895Z,9.93
2023-05-04T05:00:47.568Z,9.50
2023-05-04T05:03:14.408Z,10.30
2023-05-04T05:05:41.523Z,10.10
2023-05-04T05:08:08.263Z,9.63
2023-05-04T05:10:34.959Z,9.80
2023-05-04T05:13:01.899Z,10.60
2023-05-04T05:15:28.762Z,9.45
2023-05-04T05:17:56.456Z,10.75
2023-05-04T05:20:23.555Z,10.32
2023-05-04T05:22:51.578Z,11.43
2023-05-04T05:25:19.023Z,10.50
2023-05-04T05:27:45.945Z,10.27
2023-05-04T05:30:13.725Z,10.10
2023-05-04T05:32:40.666Z,10.50
2023-05-04T05:35:08.603Z,11.25
2023-05-04T05:37:35.481Z,10.95
2023-05-04T05:40:02.608Z,10.60
2023-05-04T05:42:30.793Z,11.02
2023-05-04T05:44:57.800Z,11.00
2023-05-04T05:47:24.470Z,10.75
2023-05-04T05:49:51.237Z,10.13
2023-05-04T05:52:18.301Z,10.10
2023-05-04T05:54:44.972Z,10.15
2023-05-04T05:57:11.791Z,10.85
2023-05-04T05:59:38.499Z,10.63
2023-05-04T06:02:05.923Z,10.75
2023-05-04T06:04:32.727Z,9.77
2023-05-04T06:06:59.500Z,11.13
2023-05-04T06:09:26.224Z,11.00
2023-05-04T06:11:54.826Z,9.57
2023-05-04T06:14:22.338Z,10.80
2023-05-04T06:16:49.173Z,10.13
2023-05-04T06:19:16.012Z,10.18
2023-05-04T06:21:42.833Z,9.38
2023-05-04T06:24:09.672Z,9.25
2023-05-04T06:26:36.486Z,8.13
2023-05-04T06:29:03.248Z,8.20
2023-05-04T06:31:29.971Z,8.82
2023-05-04T06:33:57.750Z,9.38
2023-05-04T06:36:26.124Z,8.80
2023-05-04T06:38:52.893Z,7.93
2023-05-04T06:41:19.769Z,7.55
2023-05-04T06:43:46.684Z,7.25
2023-05-04T06:46:13.366Z,8.00
2023-05-04T06:48:40.340Z,6.22
2023-05-04T06:51:07.172Z,6.15
2023-05-04T06:53:33.907Z,5.47
2023-05-04T06:56:00.860Z,4.38
2023-05-04T06:58:27.740Z,4.60
2023-05-04T07:00:55.331Z,4.20
2023-05-04T07:03:22.167Z,3.63
2023-05-04T07:05:50.659Z,3.63
2023-05-04T07:08:17.775Z,3.28
2023-05-04T07:10:44.880Z,3.10
2023-05-04T07:13:11.762Z,3.00
2023-05-04T07:15:39.271Z,3.28
2023-05-04T07:18:06.016Z,2.08
2023-05-04T07:20:32.918Z,2.20
2023-05-04T07:22:59.674Z,1.98
2023-05-04T07:25:27.184Z,3.25
2023-05-04T07:27:54.493Z,3.90
2023-05-04T07:30:21.658Z,3.28
2023-05-04T07:32:48.516Z,3.30
2023-05-04T07:35:15.394Z,3.55
2023-05-04T07:37:42.227Z,3.10
2023-05-04T07:40:10.565Z,4.95
2023-05-04T07:42:37.514Z,4.10
2023-05-04T07:45:04.752Z,3.88
2023-05-04T07:47:32.086Z,3.20
2023-05-04T07:49:58.846Z,3.70
2023-05-04T07:52:25.706Z,3.38
2023-05-04T07:54:53.480Z,3.72
2023-05-04T07:57:20.967Z,3.25
2023-05-04T07:59:47.821Z,3.38
2023-05-04T08:02:15.099Z,3.65
2023-05-04T08:04:41.755Z,4.10
2023-05-04T08:07:08.375Z,3.20
2023-05-04T08:09:35.150Z,3.20
2023-05-04T08:12:02.526Z,3.47
2023-05-04T08:14:29.571Z,3.60
2023-05-04T08:16:56.357Z,2.72
2023-05-04T08:19:23.130Z,3.03
2023-05-04T08:21:49.894Z,2.80
2023-05-04T08:24:18.376Z,3.03
2023-05-04T08:26:49.577Z,3.08
2023-05-04T08:29:22.800Z,3.22
2023-05-04T08:31:49.769Z,3.53
2023-05-04T08:34:16.546Z,4.50
2023-05-04T08:36:43.279Z,4.45
2023-05-04T08:39:11.959Z,4.55
2023-05-04T08:41:41.879Z,5.03
2023-05-04T08:44:13.716Z,5.38
2023-05-04T08:46:40.939Z,3.88
2023-05-04T08:49:07.830Z,4.10
2023-05-04T08:51:37.179Z,4.07
2023-05-04T08:54:13.169Z,3.80
2023-05-04T08:56:40.713Z,4.15
2023-05-04T08:59:11.943Z,4.03
2023-05-04T09:01:39.181Z,4.50
2023-05-04T09:04:06.399Z,4.03
2023-05-04T09:06:33.165Z,4.03
2023-05-04T09:08:59.892Z,4.70
2023-05-04T09:11:26.798Z,3.30
2023-05-04T09:13:53.546Z,3.92
2023-05-04T09:16:20.904Z,4.05
2023-05-04T09:18:47.681Z,4.32
2023-05-04T09:21:14.453Z,3.47
2023-05-04T09:23:49.277Z,3.22
2023-05-04T09:26:32.765Z,4.03
2023-05-04T09:29:13.932Z,4.30
2023-05-04T09:31:44.608Z,4.07
2023-05-04T09:34:11.384Z,3.40
2023-05-04T09:36:38.446Z,3.58
2023-05-04T09:39:12.318Z,2.95
2023-05-04T09:41:39.473Z,3.58
2023-05-04T09:44:17.408Z,3.05
2023-05-04T09:46:55.694Z,3.38
2023-05-04T09:49:36.898Z,2.80
2023-05-04T09:52:05.958Z,3.25
2023-05-04T09:54:38.904Z,3.28
2023-05-04T09:57:11.235Z,2.80
2023-05-04T09:59:39.660Z,3.40
2023-05-04T10:02:14.543Z,3.13
2023-05-04T10:04:50.592Z,3.67
2023-05-04T10:07:17.734Z,3.50
2023-05-04T10:09:44.821Z,3.00
2023-05-04T10:12:12.123Z,5.00
2023-05-04T10:14:39.090Z,4.07
2023-05-04T10:17:14.306Z,4.28
2023-05-04T10:20:08.589Z,5.30
2023-05-04T10:22:42.296Z,4.72
2023-05-04T10:25:30.814Z,4.57
2023-05-04T10:28:48.643Z,4.93
2023-05-04T10:31:15.715Z,4.05
2023-05-04T10:33:43.441Z,3.70
2023-05-04T10:36:11.645Z,4.75
2023-05-04T10:38:40.073Z,3.38
2023-05-04T10:41:21.421Z,4.30
2023-05-04T10:43:53.489Z,4.13
2023-05-04T10:46:24.433Z,4.13
2023-05-04T10:48:51.684Z,3.50
2023-05-04T10:51:23.565Z,3.78
2023-05-04T10:53:51.342Z,3.95
2023-05-04T10:56:21.859Z,4.80
2023-05-04T10:58:49.404Z,5.93
2023-05-04T11:01:16.829Z,4.80
2023-05-04T11:03:43.924Z,4.80
2023-05-04T11:06:24.827Z,7.35
2023-05-04T11:09:03.095Z,7.05
2023-05-04T11:11:29.950Z,6.50
2023-05-04T11:13:56.967Z,5.78
2023-05-04T11:16:25.119Z,6.00
2023-05-04T11:18:51.957Z,7.47
2023-05-04T11:21:26.761Z,6.45
2023-05-04T11:24:00.867Z,5.90
2023-05-04T11:26:28.724Z,5.40
2023-05-04T11:28:55.449Z,6.18
2023-05-04T11:31:22.779Z,6.90
2023-05-04T11:33:55.062Z,6.57
2023-05-04T11:36:22.879Z,5.07
2023-05-04T11:38:50.422Z,6.28
2023-05-04T11:41:17.224Z,6.22
2023-05-04T11:43:46.481Z,6.13
2023-05-04T11:46:14.527Z,6.10
2023-05-04T11:48:41.600Z,6.10
2023-05-04T11:51:08.652Z,6.07
2023-05-04T11:53:39.662Z,6.85
2023-05-04T11:56:08.915Z,5.00
2023-05-04T11:58:36.046Z,5.82
2023-05-04T12:01:04.545Z,6.50
2023-05-04T12:03:53.341Z,6.75
2023-05-04T12:06:31.513Z,6.15
2023-05-04T12:09:06.064Z,7.53
2023-05-04T12:11:34.165Z,6.25
2023-05-04T12:14:17.165Z,7.25
2023-05-04T12:16:55.639Z,6.30
2023-05-04T12:19:22.461Z,5.90
2023-05-04T12:21:54.009Z,6.30
2023-05-04T12:24:25.049Z,5.57
2023-05-04T12:26:52.036Z,6.90
2023-05-04T12:29:19.017Z,5.72
2023-05-04T12:31:45.763Z,6.40
2023-05-04T12:34:12.483Z,6.05
2023-05-04T12:36:39.128Z,6.78
2023-05-04T12:39:05.936Z,8.40
2023-05-04T12:41:32.662Z,7.13
2023-05-04T12:43:59.452Z,6.47
2023-05-04T12:46:26.274Z,6.72
2023-05-04T12:48:53.022Z,7.22
2023-05-04T12:51:19.799Z,7.15
2023-05-04T12:53:46.690Z,6.80
2023-05-04T12:56:13.451Z,6.85
2023-05-04T12:58:40.202Z,6.60
2023-05-04T13:01:07.575Z,5.30
2023-05-04T13:03:34.452Z,6.85
2023-05-04T13:06:01.237Z,6.90
2023-05-04T13:08:28.228Z,6.70
2023-05-04T13:10:55.039Z,6.32
2023-05-04T13:13:26.239Z,5.13
2023-05-04T13:15:53.168Z,5.30
2023-05-04T13:18:20.013Z,5.53
2023-05-04T13:20:46.930Z,4.63
2023-05-04T13:23:14.289Z,4.63
2023-05-04T13:25:41.045Z,5.30
2023-05-04T13:28:07.868Z,5.50
2023-05-04T13:30:34.629Z,5.22
2023-05-04T13:33:02.503Z,5.90
2023-05-04T13:35:32.410Z,5.03
2023-05-04T13:37:59.187Z,6.15
2023-05-04T13:40:25.876Z,3.95
2023-05-04T13:42:52.674Z,3.80
2023-05-04T13:45:22.993Z,4.00
2023-05-04T13:47:50.326Z,4.15
2023-05-04T13:50:17.332Z,3.15
2023-05-04T13:52:44.097Z,4.25
2023-05-04T13:55:11.969Z,3.60
2023-05-04T13:57:38.681Z,3.63
2023-05-04T14:00:08.217Z,3.92
2023-05-04T14:02:35.443Z,2.75
2023-05-04T14:05:04.051Z,3.60
2023-05-04T14:07:31.020Z,3.40
2023-05-04T14:09:59.034Z,3.17
2023-05-04T14:12:26.000Z,2.60
2023-05-04T14:14:53.315Z,3.17
2023-05-04T14:17:20.106Z,3.30
2023-05-04T14:19:46.795Z,2.72
2023-05-04T14:22:13.591Z,3.25
2023-05-04T14:24:40.257Z,2.88
2023-05-04T14:27:07.156Z,3.55
2023-05-04T14:29:34.663Z,3.28
2023-05-04T14:32:01.502Z,5.10
2023-05-04T14:34:28.344Z,5.13
2023-05-04T14:36:55.142Z,4.70
2023-05-04T14:39:22.314Z,3.70
2023-05-04T14:41:49.039Z,3.30
2023-05-04T14:44:16.023Z,3.50
2023-05-04T14:46:42.682Z,3.25
2023-05-04T14:49:11.056Z,3.00
2023-05-04T14:51:39.396Z,2.78
2023-05-04T14:54:06.050Z,3.80
2023-05-04T14:56:32.729Z,3.58
2023-05-04T14:59:01.474Z,3.95
2023-05-04T15:01:28.209Z,3.03
2023-05-04T15:03:56.308Z,4.50
2023-05-04T15:06:23.785Z,5.00
2023-05-04T15:08:50.669Z,4.53
2023-05-04T15:11:19.296Z,2.80
2023-05-04T15:13:46.313Z,3.35
2023-05-04T15:16:17.905Z,3.17
2023-05-04T15:18:44.709Z,3.25
2023-05-04T15:21:11.682Z,2.70
2023-05-04T15:23:38.458Z,2.65
2023-05-04T15:26:05.229Z,3.45
2023-05-04T15:28:32.104Z,3.47
2023-05-04T15:31:00.478Z,2.97
2023-05-04T15:33:27.374Z,2.42
2023-05-04T15:35:54.414Z,5.47
2023-05-04T15:38:21.154Z,3.75
2023-05-04T15:40:47.833Z,3.70
2023-05-04T15:43:15.220Z,3.17
2023-05-04T15:45:41.986Z,3.00
2023-05-04T15:48:08.720Z,2.92
2023-05-04T15:50:35.471Z,3.63
2023-05-04T15:53:02.148Z,2.90
2023-05-04T15:55:28.888Z,2.67
2023-05-04T15:57:55.590Z,3.15
2023-05-04T16:00:22.485Z,3.35
2023-05-04T16:02:49.403Z,2.78
2023-05-04T16:05:16.538Z,2.45
2023-05-04T16:07:43.323Z,2.90
2023-05-04T16:10:10.783Z,2.70
2023-05-04T16:12:39.252Z,3.67
2023-05-04T16:15:06.896Z,3.50
2023-05-04T16:17:35.366Z,3.55
2023-05-04T16:20:03.795Z,2.60
2023-05-04T16:22:31.725Z,2.60
2023-05-04T16:24:58.743Z,2.58
2023-05-04T16:27:28.816Z,3.47
2023-05-04T16:29:55.994Z,3.10
2023-05-04T16:32:23.104Z,2.85
2023-05-04T16:34:49.961Z,3.10
2023-05-04T16:37:18.386Z,2.78
2023-05-04T16:39:45.120Z,3.70
2023-05-04T16:42:11.897Z,2.85
2023-05-04T16:44:38.605Z,3.83
2023-05-04T16:47:05.538Z,3.88
2023-05-04T16:49:32.333Z,2.97
2023-05-04T16:51:59.130Z,3.42
2023-05-04T16:54:26.048Z,3.65
2023-05-04T16:56:52.953Z,3.58
2023-05-04T16:59:19.845Z,3.55
2023-05-04T17:01:47.507Z,3.10
2023-05-04T17:04:14.540Z,4.20
2023-05-04T17:06:41.308Z,4.13
2023-05-04T17:09:08.061Z,2.90
2023-05-04T17:11:34.868Z,3.22
2023-05-04T17:14:01.692Z,4.00
2023-05-04T17:16:28.434Z,2.92
2023-05-04T17:18:55.226Z,3.72
2023-05-04T17:21:22.150Z,3.15
2023-05-04T17:23:48.936Z,3.97
2023-05-04T17:26:16.040Z,3.45
2023-05-04T17:28:42.806Z,3.22
2023-05-04T17:31:12.597Z,3.10
2023-05-04T17:33:39.593Z,3.47
2023-05-04T17:36:07.761Z,3.20
2023-05-04T17:38:34.646Z,3.67
2023-05-04T17:41:01.593Z,3.60
2023-05-04T17:43:28.461Z,3.63
2023-05-04T17:45:56.033Z,3.65
2023-05-04T17:48:24.085Z,3.33
2023-05-04T17:50:51.359Z,3.13
2023-05-04T17:53:18.403Z,3.15
2023-05-04T17:55:45.115Z,3.47
2023-05-04T17:58:11.912Z,3.88
2023-05-04T18:00:38.612Z,3.17
2023-05-04T18:03:05.753Z,2.88
2023-05-04T18:05:32.589Z,2.95
2023-05-04T18:07:59.396Z,3.08
2023-05-04T18:10:26.295Z,2.83
2023-05-04T18:12:53.333Z,2.83
2023-05-04T18:15:20.220Z,2.90
2023-05-04T18:17:48.477Z,2.60
2023-05-04T18:20:15.744Z,3.25
2023-05-04T18:22:42.461Z,3.20
2023-05-04T18:25:09.589Z,3.50
2023-05-04T18:27:36.447Z,3.42
2023-05-04T18:30:05.043Z,3.13
2023-05-04T18:32:32.087Z,3.10
2023-05-04T18:34:58.896Z,3.17
2023-05-04T18:37:25.947Z,3.30
2023-05-04T18:39:52.916Z,3.50
2023-05-04T18:42:19.799Z,3.60
2023-05-04T18:44:46.498Z,3.90
2023-05-04T18:47:13.269Z,3.55
2023-05-04T18:49:40.082Z,4.30
2023-05-04T18:52:06.780Z,4.15
2023-05-04T18:54:33.844Z,3.83
2023-05-04T18:57:01.132Z,4.18
2023-05-04T18:59:27.997Z,4.07
2023-05-04T19:01:54.937Z,3.80
2023-05-04T19:04:21.611Z,3.97
2023-05-04T19:06:51.685Z,4.68
2023-05-04T19:09:18.879Z,4.97
2023-05-04T19:11:46.789Z,5.07
2023-05-04T19:14:14.002Z,4.72
2023-05-04T19:16:41.127Z,5.25
2023-05-04T19:19:08.813Z,5.82
2023-05-04T19:21:35.649Z,5.45
2023-05-04T19:24:02.583Z,5.93
2023-05-04T19:26:29.489Z,5.03
2023-05-04T19:28:56.229Z,5.95
2023-05-04T19:31:23.553Z,5.57
2023-05-04T19:33:50.354Z,5.68
2023-05-04T19:36:17.227Z,6.25
2023-05-04T19:38:44.402Z,6.45
2023-05-04T19:41:11.303Z,6.80
2023-05-04T19:43:38.773Z,6.65
2023-05-04T19:46:05.865Z,6.63
2023-05-04T19:48:32.871Z,6.57
2023-05-04T19:50:59.793Z,6.53
2023-05-04T19:53:27.000Z,6.45
2023-05-04T19:55:54.078Z,6.97
2023-05-04T19:58:22.065Z,6.45
2023-05-04T20:00:48.940Z,6.13
2023-05-04T20:03:17.179Z,6.85
2023-05-04T20:05:44.278Z,6.25
2023-05-04T20:08:11.947Z,6.60
2023-05-04T20:10:38.738Z,6.95
2023-05-04T20:13:06.803Z,7.38
2023-05-04T20:15:34.153Z,7.35
2023-05-04T20:18:00.905Z,6.72
2023-05-04T20:20:27.650Z,7.97
2023-05-04T20:22:56.000Z,8.07
2023-05-04T20:25:23.505Z,7.40
2023-05-04T20:27:52.171Z,7.35
2023-05-04T20:30:19.371Z,8.15
2023-05-04T20:32:48.190Z,7.88
2023-05-04T20:35:15.164Z,8.63
2023-05-04T20:37:41.874Z,8.20
2023-05-04T20:40:09.347Z,7.97
2023-05-04T20:42:36.246Z,8.13
2023-05-04T20:45:03.539Z,8.60
2023-05-04T20:47:30.421Z,8.60
2023-05-04T20:49:57.382Z,8.90
2023-05-04T20:52:24.826Z,8.38
2023-05-04T20:54:51.576Z,9.00
2023-05-04T20:57:18.392Z,7.95
2023-05-04T20:59:45.459Z,8.80
2023-05-04T21:02:12.166Z,8.85
2023-05-04T21:04:39.041Z,9.07
2023-05-04T21:07:06.271Z,8.25
2023-05-04T21:09:33.120Z,8.98
2023-05-04T21:11:59.893Z,8.85
2023-05-04T21:14:26.690Z,8.63
2023-05-04T21:16:53.444Z,9.10
2023-05-04T21:19:20.440Z,8.43
2023-05-04T21:21:47.594Z,9.13
2023-05-04T21:24:14.653Z,9.45
2023-05-04T21:26:41.713Z,9.82
2023-05-04T21:29:12.890Z,8.90
2023-05-04T21:31:40.446Z,9.80
2023-05-04T21:34:07.407Z,8.82
2023-05-04T21:36:34.096Z,9.32
2023-05-04T21:39:00.862Z,9.55
2023-05-04T21:41:27.597Z,9.48
2023-05-04T21:43:54.339Z,10.38
2023-05-04T21:46:21.075Z,9.73
2023-05-04T21:48:47.860Z,10.15
2023-05-04T21:51:14.726Z,9.55
2023-05-04T21:53:43.465Z,10.32
2023-05-04T21:56:10.990Z,11.63
2023-05-04T21:58:40.573Z,11.68
2023-05-04T22:01:08.263Z,10.68
2023-05-04T22:03:35.391Z,11.27
2023-05-04T22:06:02.478Z,12.65
2023-05-04T22:08:29.783Z,12.63
2023-05-04T22:10:57.576Z,10.88
2023-05-04T22:13:25.090Z,12.30
2023-05-04T22:15:52.428Z,12.20
2023-05-04T22:18:19.603Z,12.30
2023-05-04T22:20:46.724Z,11.57
2023-05-04T22:23:13.867Z,11.68
2023-05-04T22:25:40.842Z,11.75
2023-05-04T22:28:07.901Z,11.55
2023-05-04T22:30:34.805Z,11.27
2023-05-04T22:33:01.881Z,12.27
2023-05-04T22:35:31.240Z,11.40
2023-05-04T22:37:58.136Z,12.20
2023-05-04T22:40:25.080Z,13.32
2023-05-04T22:42:51.796Z,12.25
2023-05-04T22:45:18.786Z,12.45
2023-05-04T22:47:46.806Z,12.30
2023-05-04T22:50:14.229Z,11.68
2023-05-04T22:52:41.212Z,12.93
2023-05-04T22:55:08.795Z,12.40
2023-05-04T22:57:36.067Z,12.57
2023-05-04T23:00:08.324Z,12.30
2023-05-04T23:02:36.189Z,11.85
2023-05-04T23:05:03.913Z,11.73
2023-05-04T23:07:31.017Z,12.95
2023-05-04T23:09:57.786Z,12.38
2023-05-04T23:12:25.546Z,12.80
2023-05-04T23:14:52.470Z,11.88
2023-05-04T23:17:19.629Z,13.25
2023-05-04T23:19:46.508Z,12.98
2023-05-04T23:22:13.934Z,13.02
2023-05-04T23:24:40.699Z,12.63
2023-05-04T23:27:07.477Z,13.43
2023-05-04T23:29:34.257Z,14.05
2023-05-04T23:32:01.223Z,13.40
2023-05-04T23:34:28.215Z,13.45
2023-05-04T23:36:55.001Z,13.15
2023-05-04T23:39:21.885Z,13.68
2023-05-04T23:41:48.613Z,13.77
2023-05-04T23:44:16.512Z,14.32
2023-05-04T23:46:43.263Z,15.25
2023-05-04T23:49:10.006Z,14.40
2023-05-04T23:51:36.736Z,15.07
2023-05-04T23:54:03.615Z,14.75
2023-05-04T23:56:31.712Z,15.80
2023-05-04T23:58:58.502Z,15.70
